• Join FlightAware (Why Join?)
  • Login
  • US Flag 
05:55AM EDT


 

Airport Tracker/Info


-or-


 

Live Flight TrackerFlight Track Log ✈ VNR160 ✈ 26-Apr-2013 ✈ KUOX - KHOU

Flight Track Log - Related Links

Times and Time Zones

All times are in EDT time to prevent confusion due to time zone crossing. See the VNR160 flight status page for this flight to view local times or setup timezone preferences in your user account.

Time Position Orientation Groundspeed Altitude Reporting Facility
EDT Latitude Longitude Course Direction KTS MPH feet Rate Location/Type
03:50PM 34.3094 -89.4794 188° South 353 406 4,600  Level Memphis Center
03:51PM 34.2489 -89.4903 188° South 239 275 6,700 2,100 Climbing Memphis Center
03:52PM 34.2011 -89.5233 210° Southwest 223 257 8,800 2,580 Climbing Memphis Center
03:53PM 34.1703 -89.5714 232° Southwest 187 215 11,900 2,520 Climbing Memphis Center
03:54PM 34.1369 -89.6144 227° Southwest 177 204 13,900 1,260 Climbing Memphis Center
03:55PM 34.0978 -89.6725 231° Southwest 203 234 14,500 480 Climbing Memphis Center
03:56PM 34.0500 -89.7406 230° Southwest 227 261 14,900 180 Climbing Memphis Center
03:57PM 34.0067 -89.7983 228° Southwest 239 275 14,900  Level Memphis Center
03:58PM 33.9608 -89.8639 230° Southwest 245 282 14,900  Level Memphis Center
03:59PM 33.9172 -89.9317 232° Southwest 256 295 14,900  Level Memphis Center
04:00PM 33.8717 -89.9969 230° Southwest 257 296 14,900  Level Memphis Center
04:01PM 33.8197 -90.0672 228° Southwest 267 307 14,900 60 Level Memphis Center
04:02PM 33.7717 -90.1422 232° Southwest 279 321 15,100 1,500 Climbing Memphis Center
04:03PM 33.7322 -90.2000 231° Southwest 267 307 17,900 2,400 Climbing Memphis Center
04:04PM 33.6947 -90.2522 229° Southwest 240 276 19,900 1,800 Climbing Memphis Center
04:05PM 33.6572 -90.3047 229° Southwest 221 254 21,500 1,560 Climbing Memphis Center
04:06PM 33.6197 -90.3572 229° Southwest 226 260 23,100 1,560 Climbing Memphis Center
04:07PM 33.5758 -90.4169 229° Southwest 232 267 24,700 1,500 Climbing Memphis Center
04:08PM 33.5319 -90.4769 229° Southwest 237 273 26,200 1,500 Climbing Memphis Center
04:09PM 33.4881 -90.5389 230° Southwest 242 278 27,700 1,260 Climbing Memphis Center
04:10PM 33.4419 -90.6061 231° Southwest 247 284 28,800 900 Climbing Memphis Center
04:11PM 33.3917 -90.6756 229° Southwest 263 303 29,600 600 Climbing Memphis Center
04:12PM 33.3394 -90.7500 230° Southwest 287 330 30,000 180 Climbing Memphis Center
04:13PM 33.2806 -90.8344 230° Southwest 311 358 30,000  Level Memphis Center
04:14PM 33.2178 -90.9158 227° Southwest 329 379 30,000  Level Memphis Center
04:15PM 33.1567 -91.0025 230° Southwest 341 392 30,000  Level Memphis Center
04:16PM 33.0914 -91.0936 229° Southwest 353 406 30,000  Level Memphis Center
04:17PM 33.0261 -91.1825 229° Southwest 358 412 30,000 300 Level Memphis Center
04:18PM 32.9631 -91.2683 229° Southwest 358 412 30,600 720 Climbing Memphis Center
04:19PM 32.8956 -91.3617 229° Southwest 352 405 31,500 540 Climbing Memphis Center
04:20PM 32.8083 -91.4844 230° Southwest 320 368 32,000 180 Climbing Fort Worth Center
04:21PM 32.7456 -91.5700 229° Southwest 320 368 32,000  Level Fort Worth Center
04:22PM 32.6847 -91.6531 229° Southwest 326 375 32,000  Level Fort Worth Center
04:23PM 32.6217 -91.7358 228° Southwest 331 381 32,000  Level Fort Worth Center
04:24PM 32.5586 -91.8186 228° Southwest 331 381 32,000  Level Fort Worth Center
04:26PM 32.4519 -91.9664 229° Southwest 335 386 32,000  Level Houston Center
04:27PM 32.3867 -92.0508 228° Southwest 339 390 32,000  Level Houston Center
04:28PM 32.3128 -92.1519 229° Southwest 339 390 32,000  Level Houston Center
04:29PM 32.2481 -92.2339 227° Southwest 341 392 32,000  Level Houston Center
04:30PM 32.1853 -92.3164 228° Southwest 339 390 32,000  Level Houston Center
04:31PM 32.1236 -92.3997 229° Southwest 338 389 32,000  Level Houston Center
04:32PM 32.0625 -92.4836 229° Southwest 337 388 32,000  Level Houston Center
04:33PM 32.0017 -92.5672 229° Southwest 335 386 32,000  Level Houston Center
04:34PM 31.9278 -92.6656 228° Southwest 335 386 32,000  Level Houston Center
04:35PM 31.8661 -92.7481 229° Southwest 336 387 32,000  Level Houston Center
04:36PM 31.8033 -92.8300 228° Southwest 337 388 32,000  Level Houston Center
04:38PM 31.7411 -92.9144 229° Southwest 340 391 32,000  Level Houston Center
04:39PM 31.6789 -92.9953 228° Southwest 337 388 32,000 -480 Level Houston Center
04:40PM 31.6022 -93.0961 228° Southwest 343 395 31,100 -840 Descending Houston Center
04:41PM 31.5369 -93.1822 228° Southwest 351 404 30,300 -540 Descending Houston Center
04:42PM 31.4692 -93.2681 227° Southwest 358 412 30,000 -180 Descending Houston Center
04:43PM 31.4108 -93.3456 229° Southwest 346 398 30,000  Level Houston Center
04:44PM 31.3353 -93.4433 228° Southwest 340 391 30,000  Level Houston Center
04:45PM 31.2725 -93.5222 227° Southwest 335 386 30,000  Level Houston Center
04:46PM 31.2064 -93.6086 228° Southwest 336 387 30,000 -240 Level Houston Center
04:47PM 31.1431 -93.6894 228° Southwest 339 390 29,600 -600 Descending Houston Center
04:48PM 31.0794 -93.7719 228° Southwest 344 396 28,800 -1,020 Descending Houston Center
04:49PM 31.0128 -93.8589 228° Southwest 358 412 27,500 -1,500 Descending Houston Center
04:50PM 30.9461 -93.9436 227° Southwest 357 411 25,700 -2,340 Descending Houston Center
04:51PM 30.8675 -94.0444 228° Southwest 353 406 22,700 -2,520 Descending Houston Center
04:52PM 30.8039 -94.1264 228° Southwest 346 398 20,500 -2,280 Descending Houston Center
04:53PM 30.7350 -94.2114 227° Southwest 334 384 18,100 -2,220 Descending Houston Center
04:54PM 30.7022 -94.2542 228° Southwest 326 375 17,100 -1,680 Descending Houston Center
04:54PM 30.6806 -94.2808 227° Southwest 325 374 16,400 -1,680 Descending Houston Center
04:55PM 30.6231 -94.3544 228° Southwest 314 361 14,500 -1,920 Descending Houston Center
04:56PM 30.5714 -94.4197 227° Southwest 302 348 13,100 -1,800 Descending Houston Center
04:56PM 30.5553 -94.4400 227° Southwest 302 348 12,700 -1,260 Descending Houston Center
04:57PM 30.5081 -94.5008 228° Southwest 299 344 11,700 -1,500 Descending Houston Center
04:58PM 30.4600 -94.5703 231° Southwest 266 306 10,000 -900 Descending Houston Center
04:59PM 30.4219 -94.6308 234° Southwest 251 289 10,000  Level Houston Center
04:59PM 30.4117 -94.6469 234° Southwest 255 293 10,000  Level Houston Center
05:00PM 30.3706 -94.7078 232° Southwest 262 302 10,000  Level Houston Center
05:00PM 30.3681 -94.7144 247° West 260 299 10,000  Level Houston Center
05:01PM 30.3286 -94.7761 233° Southwest 260 299 10,000  Level Houston Center
05:01PM 30.3242 -94.7811 224° Southwest 261 300 10,000  Level Houston Center
05:02PM 30.2844 -94.8422 233° Southwest 257 296 10,000  Level Houston Center
05:02PM 30.2736 -94.8606 236° Southwest 257 296 10,000  Level Houston Center
05:03PM 30.2406 -94.9106 233° Southwest 254 292 10,000  Level Houston Center
05:03PM 30.2314 -94.9253 234° Southwest 253 291 10,000  Level Houston Center
05:04PM 30.1964 -94.9767 232° Southwest 254 292 10,000  Level Houston Center
05:04PM 30.1889 -94.9914 239° Southwest 256 295 10,000  Level Houston Center
05:05PM 30.1544 -95.0422 232° Southwest 254 292 10,000  Level Houston Center
05:05PM 30.1461 -95.0547 232° Southwest 252 290 10,000  Level Houston Center
05:06PM 30.0975 -95.0856 209° Southwest 258 297 10,000  Level Houston Center
05:07PM 30.0842 -95.0933 207° Southwest 259 298 10,000  Level Houston Center
05:07PM 30.0208 -95.1192 199° South 252 290 10,000  Level Houston Center
05:08PM 30.0175 -95.1214 210° Southwest 255 293 10,000 -360 Level Houston Center
05:08PM 29.9664 -95.1428 200° South 230 265 9,700 -720 Descending Houston Center
05:09PM 29.9453 -95.1525 202° Southwest 233 268 9,300 -1,080 Descending Houston Center
05:09PM 29.9036 -95.1697 200° South 224 258 8,600 -1,020 Descending Houston Center
05:10PM 29.8878 -95.1778 204° Southwest 224 258 8,300 -1,380 Descending Houston Center
05:10PM 29.8411 -95.1967 199° South 216 249 7,100 -1,500 Descending Houston Center
05:11PM 29.8325 -95.2022 209° Southwest 214 246 6,800 -1,080 Descending Houston Center
05:11PM 29.7847 -95.2228 200° South 203 234 6,000 -780 Descending Houston Center
05:12PM 29.7794 -95.2250 200° South 207 238 6,000  Level Houston Center
05:12PM 29.7400 -95.2403 199° South 193 222 6,000  Level Houston Center
05:13PM 29.7283 -95.2458 202° Southwest 197 227 6,000  Level Houston Center
05:13PM 29.6892 -95.2803 217° Southwest 214 246 6,000  Level Houston Center
05:14PM 29.6806 -95.2969 239° Southwest 214 246 6,000 -780 Level Houston Center
05:14PM 29.6625 -95.3314 239° Southwest 209 241 5,300 -1,500 Descending Houston Center
05:15PM 29.6508 -95.3519 237° Southwest 208 239 4,500 -2,160 Descending Houston Center
05:15PM 29.6542 -95.4022 274° West 207 238 2,900 -1,980 Descending Houston Center
05:16PM 29.6631 -95.4133 313° West 211 243 2,500 -1,020 Descending Houston Center
05:16PM 29.6989 -95.4331 334° Northwest 217 250 2,000 -540 Descending Houston Center
05:17PM 29.7136 -95.4242 28° Northeast 212 244 2,000  Level Houston Center
05:17PM 29.7261 -95.3864 69° East 189 217 2,000  Level Houston Center
05:18PM 29.7214 -95.3711 110° East 197 227 2,000 -600 Level Houston Center
05:18PM 29.6969 -95.3417 134° Southeast 168 193 1,400 -1,020 Descending Houston Center
05:19PM 29.6825 -95.3239 133° Southeast 180 207 1,000 -660 Descending Houston Center
05:19PM 29.6711 -95.3111 136° Southeast 138 159 800 -600 Descending Houston Center
05:20PM 29.6586 -95.2947 131° Southeast 150 173 400 -420 Descending Houston Center
05:21PM 29.6347 -95.2653 133° Southeast 146 168 200 -240 Descending Houston Center